Latest Weather Observations for Norfolk Island

IDN60801

Issued at 11:34 pm EDT Tuesday 3 March 2015 (issued every 30 minutes, with the page automatically refreshed every 10 minutes)

About weather observations | Map of weather stations | Latest weather observations for NSW | Other Formats
Station Details ID: 200288 Name: NORFOLK ISLAND AERO Lat: -29.04 Lon: 167.94 Height: 111.73 m
Data from the previous 72 hours. | See also: Recent months at Norfolk Island
Date/Time
EDT
Temp
°C
App
Temp
°C
Dew
Point
Rel
Hum
%
Delta-T
°C
Wind Press
QNH
hPa
Press
MSL
hPa
Rain
since 9 am
mm
Dir
 
Spd
km/h
Gust
km/h
Spd
kts
Gust
kts
03/11:30pm 21.8 22.1 20.4 92 0.9 SSW 19 26 10 14 1011.6 1011.2 0.4
03/11:21pm 21.9 22.2 20.7 93 0.8 SSW 20 28 11 15 1011.6 - 0.4
03/11:06pm 21.9 23.5 20.8 93 0.7 SSW 13 19 7 10 1011.7 - 0.4
03/11:03pm 21.8 23.5 20.9 95 0.6 S 13 20 7 11 1011.7 - 0.4
03/11:00pm 21.8 23.1 20.9 95 0.6 SSW 15 24 8 13 1011.8 - 0.4
03/10:49pm 21.7 22.2 20.8 95 0.6 S 19 30 10 16 1011.8 - 0.4
03/10:46pm 21.8 22.6 20.7 93 0.7 S 17 28 9 15 1011.8 - 0.4
03/10:41pm 21.7 22.4 20.5 93 0.8 S 17 20 9 11 1011.8 - 0.4
03/10:30pm 21.8 22.4 20.3 91 1.0 S 17 26 9 14 1011.8 - 0.4
03/10:08pm 21.6 22.0 20.7 95 0.6 SSW 19 30 10 16 1011.9 - 0.4
03/10:00pm 21.7 23.0 20.8 95 0.6 SSW 15 20 8 11 1011.9 - 0.4
03/09:30pm 21.5 22.0 20.9 96 0.4 SSW 19 32 10 17 1011.9 - 0.4
03/09:14pm 21.7 23.0 20.8 95 0.6 SSW 15 20 8 11 1011.8 - 0.0
03/09:10pm 21.8 23.0 20.7 93 0.7 SSW 15 20 8 11 1011.8 - 0.0
03/09:00pm 21.6 23.6 20.8 95 0.5 SSW 11 17 6 9 1011.8 - 0.0
03/08:30pm 21.7 22.4 20.5 93 0.8 SSW 17 26 9 14 1011.8 1011.4 0.0
03/08:28pm 21.8 22.5 20.4 92 0.9 SSW 17 26 9 14 1011.7 - 0.0
03/08:00pm 22.2 23.4 19.9 87 1.5 SSW 13 19 7 10 1011.5 - 0.0
03/07:30pm 22.2 23.0 19.9 87 1.5 S 15 22 8 12 1011.4 - 0.0
03/07:00pm 22.3 23.8 20.5 89 1.2 S 13 17 7 9 1011.1 - 0.0
03/06:55pm 22.4 23.3 20.1 87 1.5 S 15 24 8 13 1011.1 - 0.0
03/06:53pm 22.4 22.9 20.1 87 1.5 S 17 24 9 13 1011.1 - 0.0
03/06:30pm 22.6 23.5 20.1 86 1.6 SSW 15 19 8 10 1010.9 - 0.0
03/06:00pm 22.7 22.7 19.8 84 1.9 SSW 19 28 10 15 1010.6 - 0.0
03/05:30pm 22.7 23.2 20.1 85 1.7 SSW 17 26 9 14 1010.3 1009.9 0.0
03/05:00pm 22.9 22.9 20.1 84 1.8 SSW 20 28 11 15 1010.2 - 0.0
03/04:30pm 22.8 22.4 20.2 85 1.7 SSW 22 28 12 15 1010.0 - 0.0
03/04:00pm 23.3 23.3 20.1 82 2.1 SSW 20 28 11 15 1009.9 - 0.0
03/03:30pm 23.5 23.5 20.1 81 2.2 SSW 20 28 11 15 1009.9 - 0.0
03/03:00pm 23.9 23.9 20.1 79 2.5 SSW 20 26 11 14 1010.0 - 0.0
03/02:30pm 23.9 24.0 20.4 81 2.3 SSW 20 26 11 14 1010.3 1009.9 0.0
03/02:00pm 23.7 22.9 20.0 80 2.4 SW 24 30 13 16 1010.5 - 0.0
03/01:30pm 24.6 25.3 20.5 78 2.7 SSW 17 26 9 14 1010.8 - 0.0
03/01:00pm 24.2 24.5 20.7 81 2.3 SSW 20 28 11 15 1011.3 - 0.0
03/12:30pm 24.5 25.1 21.0 81 2.3 SW 19 26 10 14 1011.4 - 0.0
03/12:00pm 24.3 25.1 20.6 80 2.4 SSW 17 28 9 15 1011.5 - 0.0
03/11:30am 24.0 25.0 20.3 80 2.4 SW 15 24 8 13 1011.5 1011.1 0.0
03/11:00am 23.9 24.7 20.7 82 2.1 SSW 17 22 9 12 1011.5 - 0.0
03/10:30am 23.8 24.4 20.3 81 2.3 SW 17 19 9 10 1011.6 - 0.0
03/10:00am 23.9 25.6 20.9 83 2.0 SSW 13 19 7 10 1011.8 - 0.0
03/09:46am 22.9 24.1 20.6 87 1.5 SSW 15 19 8 10 1011.8 - 0.0
03/09:30am 22.8 23.6 20.7 88 1.4 SSW 17 20 9 11 1011.9 - 0.0
03/09:00am 23.7 25.3 21.4 87 1.5 S 15 20 8 11 1011.6 - 0.0
03/08:55am 23.2 24.5 20.9 87 1.5 S 15 19 8 10 1011.7 - 0.0
03/08:00am 22.7 24.2 21.3 92 0.9 S 15 19 8 10 1011.5 - 2.2
03/07:30am 22.7 25.5 21.5 93 0.8 S 9 11 5 6 1011.2 - 2.2
03/07:23am 22.5 24.9 21.6 95 0.6 S 11 15 6 8 1011.2 - 2.2
03/07:00am 22.2 23.8 21.4 95 0.5 SSE 15 17 8 9 1010.9 - 2.2
03/06:32am 22.3 26.2 21.8 97 0.3 NE 4 9 2 5 1010.5 - 2.2
03/06:30am 22.4 26.7 21.9 97 0.3 NNE 2 9 1 5 1010.5 - 2.2
03/06:13am 22.2 25.7 21.9 98 0.2 NNE 6 9 3 5 1010.2 - 2.2
03/06:11am 22.2 25.4 21.7 97 0.3 NNE 7 9 4 5 1010.2 - 2.2
03/06:08am 22.0 25.1 21.5 97 0.3 NNE 7 9 4 5 1010.1 - 2.2
03/06:00am 21.5 24.5 21.2 98 0.2 NNE 7 9 4 5 1010.0 - 2.2
03/05:40am 21.6 25.9 21.1 97 0.3 CALM 0 0 0 0 1009.7 - 2.2
03/05:34am 21.9 26.3 21.4 97 0.3 CALM 0 0 0 0 1009.5 - 2.2
03/05:30am 21.8 26.2 21.3 97 0.3 CALM 0 0 0 0 1009.5 1009.0 2.2
03/05:00am 21.9 26.3 21.3 96 0.4 CALM 0 0 0 0 1009.4 - 2.2
03/04:55am 22.1 26.6 21.5 96 0.4 CALM 0 0 0 0 1009.3 - 2.2
03/04:36am 22.0 26.5 21.5 97 0.3 CALM 0 0 0 0 1009.2 - 2.2
03/04:30am 22.1 26.6 21.5 96 0.4 CALM 0 0 0 0 1009.1 - 2.2
03/04:28am 22.1 26.6 21.5 96 0.4 CALM 0 0 0 0 1009.1 - 2.2
03/04:27am 22.1 26.6 21.5 96 0.4 CALM 0 0 0 0 1009.1 - 2.2
03/04:00am 21.8 26.2 21.3 97 0.3 CALM 0 0 0 0 1009.0 - 2.2
03/03:59am 21.7 26.0 21.1 96 0.4 CALM 0 0 0 0 1009.0 - 2.2
03/03:40am 22.2 26.3 21.6 96 0.4 NNE 2 7 1 4 1008.8 - 2.2
03/03:30am 22.3 25.7 21.7 96 0.4 NNE 6 7 3 4 1008.7 - 2.2
03/03:06am 22.6 26.1 21.8 95 0.5 NE 6 7 3 4 1008.8 - 2.2
03/03:00am 22.5 25.8 21.9 96 0.4 NNE 7 9 4 5 1008.8 - 2.2
03/02:48am 22.5 27.1 21.7 95 0.5 CALM 0 6 0 3 1008.8 - 2.2
03/02:30am 22.6 25.8 21.7 95 0.6 NNE 7 9 4 5 1008.7 1008.2 2.2
03/02:26am 22.5 25.4 21.7 95 0.5 NNE 9 13 5 7 1008.7 - 2.2
03/02:13am 22.6 25.9 21.8 95 0.5 NNE 7 9 4 5 1008.7 - 2.2
03/02:12am 22.6 25.9 21.8 95 0.5 NNE 7 9 4 5 1008.7 - 2.2
03/02:00am 22.6 25.9 21.8 95 0.5 NNE 7 9 4 5 1008.8 - 2.2
03/01:55am 22.6 25.9 21.8 95 0.5 NNE 7 11 4 6 1008.9 - 2.2
03/01:42am 22.5 25.8 21.9 96 0.4 NNE 7 11 4 6 1008.9 - 2.2
03/01:36am 22.5 25.5 21.9 96 0.4 NNE 9 11 5 6 1008.9 - 2.2
03/01:30am 22.5 25.4 21.7 95 0.5 NNE 9 11 5 6 1008.9 - 2.2
03/01:00am 22.5 25.3 21.6 95 0.6 NE 9 11 5 6 1009.1 - 2.2
03/12:30am 22.5 26.3 21.6 95 0.6 NNE 4 9 2 5 1009.5 - 2.2
03/12:00am 22.5 25.7 21.6 95 0.6 NNE 7 11 4 6 1009.6 - 2.2
 
Date/Time
EDT
Temp
°C
App
Temp
°C
Dew
Point
Rel
Hum
%
Delta-T
°C
Wind Press
QNH
hPa
Press
MSL
hPa
Rain
since 9 am
mm
Dir
 
Spd
km/h
Gust
km/h
Spd
kts
Gust
kts
02/11:55pm 22.5 25.3 21.6 95 0.6 NNE 9 13 5 7 1009.6 - 2.2
02/11:30pm 22.2 24.8 21.9 98 0.2 NE 11 15 6 8 1009.6 1009.1 2.2
02/11:22pm 22.2 24.9 21.4 95 0.5 NNE 9 13 5 7 1009.6 - 2.2
02/11:00pm 22.1 25.0 21.8 98 0.2 NNE 9 13 5 7 1009.5 - 2.2
02/10:30pm 22.3 25.2 21.8 97 0.3 NNE 9 15 5 8 1009.4 - 2.2
02/10:00pm 22.3 24.5 21.8 97 0.3 NE 13 17 7 9 1009.3 - 2.2
02/09:30pm 22.3 24.8 21.7 96 0.4 NE 11 17 6 9 1009.4 - 2.2
02/08:59pm 22.3 25.1 21.5 95 0.5 NNE 9 15 5 8 1009.6 - 2.2
02/08:30pm 22.3 24.7 21.5 95 0.5 NE 11 13 6 7 1009.5 1009.0 2.2
02/08:06pm 22.2 25.0 21.6 96 0.4 NE 9 11 5 6 1009.3 - 2.2
02/08:00pm 22.2 24.6 21.6 96 0.4 NNE 11 13 6 7 1009.3 - 2.2
02/07:30pm 22.3 24.6 21.4 95 0.6 NE 11 15 6 8 1008.9 - 2.2
02/07:10pm 22.3 24.1 21.2 93 0.7 NE 13 15 7 8 1008.6 - 2.2
02/07:00pm 22.3 24.5 21.2 93 0.7 NE 11 17 6 9 1008.5 - 2.2
02/06:30pm 22.4 23.8 21.0 92 0.9 NNE 15 19 8 10 1008.0 - 2.2
02/06:00pm 22.5 24.4 21.3 93 0.8 NNE 13 19 7 10 1007.9 - 2.2
02/05:30pm 22.5 24.4 21.4 93 0.7 NE 13 19 7 10 1007.8 1007.3 2.2
02/05:00pm 22.6 24.2 21.5 93 0.7 NNE 15 26 8 14 1007.7 - 2.2
02/04:30pm 22.5 24.2 21.6 95 0.6 NE 15 22 8 12 1007.7 - 2.2
02/04:00pm 23.3 26.4 22.1 93 0.8 NNE 9 15 5 8 1007.6 - 2.2
02/03:30pm 23.8 27.1 22.5 92 0.9 NNE 9 13 5 7 1007.4 - 2.2
02/03:00pm 24.3 27.5 23.0 92 0.9 N 11 17 6 9 1007.6 - 2.2
02/02:58pm 24.1 27.0 22.5 91 1.1 N 11 17 6 9 1007.7 - 2.2
02/02:45pm 23.4 26.5 22.2 93 0.8 N 9 13 5 7 1007.8 - 2.2
02/02:30pm 23.4 26.6 22.4 94 0.7 NNW 9 15 5 8 1007.9 1007.4 1.8
02/02:22pm 23.5 26.0 22.5 94 0.7 NNW 13 20 7 11 1007.9 - 1.6
02/02:09pm 23.6 25.9 22.1 91 1.0 NNW 13 19 7 10 1008.0 - 1.6
02/02:00pm 24.2 26.7 22.4 90 1.2 NNW 13 19 7 10 1008.0 - 1.6
02/01:44pm 24.5 27.6 22.1 86 1.6 N 9 19 5 10 1008.3 - 1.6
02/01:30pm 24.0 27.1 22.1 89 1.3 NNE 9 13 5 7 1008.4 - 1.6
02/01:25pm 23.4 26.4 22.7 96 0.5 NNE 11 15 6 8 1008.5 - 1.6
02/01:00pm 24.1 26.9 22.3 90 1.2 N 11 17 6 9 1008.6 - 1.6
02/12:51pm 23.8 26.9 22.9 95 0.6 N 11 17 6 9 1008.7 - 1.6
02/12:30pm 23.3 25.9 22.7 96 0.4 N 13 24 7 13 1008.8 - 1.6
02/12:27pm 23.3 25.2 22.1 93 0.8 N 15 24 8 13 1008.7 - 1.6
02/12:06pm 23.3 25.8 22.4 95 0.6 N 13 19 7 10 1008.9 - 1.6
02/12:00pm 23.2 25.6 22.3 95 0.6 N 13 19 7 10 1009.0 - 1.6
02/11:57am 23.3 26.0 22.9 98 0.3 N 13 20 7 11 1009.0 - 1.6
02/11:30am 23.2 25.3 22.5 96 0.5 NNE 15 22 8 12 1009.0 1008.5 1.6
02/11:15am 23.4 24.8 22.5 95 0.6 NNE 19 28 10 15 1008.9 - 1.6
02/11:00am 22.9 24.8 22.0 95 0.6 NNE 15 24 8 13 1009.0 - 1.6
02/10:52am 22.7 25.0 22.1 96 0.4 NNE 13 20 7 11 1009.1 - 1.6
02/10:30am 22.6 23.8 22.2 98 0.3 NNE 19 28 10 15 1009.5 - 1.6
02/10:21am 22.5 23.9 21.9 96 0.4 NNE 17 26 9 14 1009.5 - 1.4
02/10:00am 22.5 24.5 22.2 98 0.2 NNE 15 22 8 12 1009.7 - 0.8
02/09:46am 22.5 24.4 22.0 97 0.3 NE 15 22 8 12 1010.0 - 0.6
02/09:42am 22.5 24.3 21.9 96 0.4 NE 15 22 8 12 1010.0 - 0.6
02/09:30am 22.4 24.2 21.8 96 0.4 NE 15 22 8 12 1010.1 - 0.0
02/09:00am 22.5 24.3 21.9 96 0.4 NNE 15 20 8 11 1010.0 - 0.0
02/08:30am 22.4 23.7 21.6 95 0.5 NNE 17 24 9 13 1009.8 1009.3 19.0
02/08:19am 22.4 23.7 21.6 95 0.5 NNE 17 28 9 15 1009.7 - 19.0
02/08:00am 22.5 24.5 21.6 95 0.6 NNE 13 26 7 14 1009.6 - 19.0
02/07:50am 22.5 24.9 21.6 95 0.6 NE 11 15 6 8 1009.6 - 18.8
02/07:30am 22.5 24.6 21.7 95 0.5 ENE 13 17 7 9 1009.1 - 18.8
02/07:25am 22.6 24.7 21.7 95 0.6 E 13 17 7 9 1009.1 - 18.8
02/07:00am 22.4 24.8 21.6 95 0.5 ENE 11 15 6 8 1009.1 - 18.8
02/06:51am 22.2 24.2 21.6 96 0.4 ENE 13 15 7 8 1009.1 - 18.8
02/06:30am 22.0 23.6 21.5 97 0.3 E 15 19 8 10 1009.2 - 18.8
02/06:04am 21.8 22.9 21.2 96 0.4 E 17 22 9 12 1009.2 - 18.8
02/06:00am 21.8 22.9 21.3 97 0.3 E 17 22 9 12 1009.2 - 18.8
02/05:45am 21.8 23.6 21.2 96 0.4 ENE 13 17 7 9 1009.1 - 18.8
02/05:30am 21.8 23.6 21.2 96 0.4 ENE 13 15 7 8 1009.3 1008.8 18.8
02/05:00am 21.7 22.7 21.1 96 0.4 ENE 17 26 9 14 1009.2 - 18.0
02/04:30am 22.0 22.2 21.4 96 0.4 NE 22 33 12 18 1009.1 - 16.2
02/04:00am 22.1 24.1 21.5 96 0.4 E 13 17 7 9 1009.1 - 13.8
02/03:30am 21.8 22.9 21.3 97 0.3 NE 17 24 9 13 1009.0 - 13.8
02/03:00am 21.7 21.8 21.1 96 0.4 ENE 22 30 12 16 1009.2 - 11.6
02/02:30am 21.9 21.0 21.4 97 0.3 ENE 28 43 15 23 1009.4 1008.9 4.6
02/02:00am 22.5 22.2 21.9 96 0.4 ENE 26 39 14 21 1009.3 - 0.6
02/01:37am 22.6 22.0 22.0 96 0.4 ENE 28 39 15 21 1009.6 - 0.0
02/01:30am 22.7 22.4 21.9 95 0.5 ENE 26 39 14 21 1009.6 - 0.0
02/01:00am 22.7 22.5 22.1 96 0.4 ENE 26 35 14 19 1009.7 - 0.0
02/12:41am 22.8 22.3 22.1 96 0.5 ENE 28 39 15 21 1010.0 - 0.0
02/12:30am 22.8 22.3 22.1 96 0.5 ENE 28 39 15 21 1010.2 - 0.0
02/12:00am 22.8 23.4 22.1 96 0.5 E 22 30 12 16 1010.5 - 0.0
 
Date/Time
EDT
Temp
°C
App
Temp
°C
Dew
Point
Rel
Hum
%
Delta-T
°C
Wind Press
QNH
hPa
Press
MSL
hPa
Rain
since 9 am
mm
Dir
 
Spd
km/h
Gust
km/h
Spd
kts
Gust
kts
01/11:46pm 22.7 22.9 22.1 96 0.4 E 24 33 13 18 1010.6 - 0.0
01/11:30pm 22.6 22.4 22.0 96 0.4 ENE 26 35 14 19 1010.7 1010.3 0.0
01/11:00pm 22.5 21.5 21.9 96 0.4 ENE 30 39 16 21 1010.7 - 0.0
01/10:30pm 22.5 20.9 21.6 95 0.6 E 32 44 17 24 1010.7 - 0.0
01/10:00pm 22.6 20.6 21.2 92 0.9 E 33 43 18 23 1011.1 - 0.0
01/09:30pm 22.6 21.2 21.1 91 1.0 E 30 39 16 21 1011.3 - 0.0
01/09:00pm 22.6 21.4 20.9 90 1.1 E 28 35 15 19 1011.7 - 0.0
01/08:30pm 22.6 21.5 21.1 91 1.0 ENE 28 35 15 19 1011.8 1011.4 0.0
01/08:00pm 22.6 22.1 21.4 93 0.8 ENE 26 35 14 19 1011.3 - 0.0
01/07:29pm 22.6 20.4 21.4 93 0.8 ENE 35 54 19 29 1010.0 - 0.0
01/07:00pm 22.5 19.2 21.6 95 0.6 ENE 41 54 22 29 1009.5 - 0.0
01/06:30pm 22.5 20.8 21.7 95 0.5 E 33 48 18 26 1009.7 - 0.0
01/06:00pm 22.7 21.3 21.9 95 0.5 ENE 32 41 17 22 1009.7 - 0.0
01/05:30pm 22.7 21.2 21.8 95 0.6 E 32 39 17 21 1009.4 1008.9 0.0
01/05:00pm 22.7 23.0 21.6 93 0.7 E 22 30 12 16 1009.9 - 0.0
01/04:30pm 22.6 23.4 21.4 93 0.8 E 19 30 10 16 1010.2 - 0.0
01/04:00pm 22.7 23.9 21.5 93 0.8 E 17 22 9 12 1010.7 - 0.0
01/03:57pm 22.7 23.8 21.3 92 0.9 E 17 24 9 13 1010.7 - 0.0
01/03:30pm 22.7 23.4 21.2 91 1.0 ENE 19 24 10 13 1010.8 - 0.0
01/03:00pm 22.7 23.7 21.0 90 1.1 E 17 20 9 11 1011.0 - 0.0
01/02:30pm 22.8 23.4 21.0 89 1.2 E 19 28 10 15 1011.2 1010.8 0.0
01/02:00pm 23.0 23.2 21.3 90 1.1 E 22 33 12 18 1011.3 - 0.0
01/01:30pm 23.3 22.7 21.3 88 1.3 E 26 39 14 21 1011.4 - 0.0
01/01:00pm 23.7 24.6 21.9 90 1.2 E 20 30 11 16 1011.2 - 0.0
01/12:30pm 23.4 24.3 21.6 90 1.2 E 19 26 10 14 1011.1 - 0.0
01/12:00pm 23.2 24.2 21.1 88 1.4 E 17 26 9 14 1011.6 - 0.0
01/11:54am 23.4 23.8 21.0 86 1.6 E 20 30 11 16 1011.7 - 0.0
01/11:30am 23.5 24.0 21.1 86 1.6 E 20 26 11 14 1011.9 1011.5 0.0
01/11:00am 23.5 24.0 21.1 86 1.6 E 20 30 11 16 1012.3 - 0.0
01/10:30am 23.5 23.9 20.9 85 1.7 ENE 20 28 11 15 1012.4 - 0.0
01/10:00am 23.3 24.1 21.3 88 1.3 ENE 19 26 10 14 1012.6 - 0.0
01/09:30am 23.0 23.9 21.5 91 1.0 ENE 19 26 10 14 1012.6 - 0.0
01/09:00am 23.1 23.4 21.6 91 1.0 ENE 22 32 12 17 1012.4 - 0.0
01/08:30am 23.0 23.9 21.5 91 1.0 NE 19 28 10 15 1012.7 1012.3 9.0
01/08:23am 22.8 24.0 21.4 92 0.9 NE 17 24 9 13 1012.8 - 9.2
01/08:17am 22.9 24.1 21.5 92 0.9 ENE 17 24 9 13 1012.7 - 9.0
01/08:00am 22.7 23.8 21.3 92 0.9 ENE 17 24 9 13 1012.6 - 9.0
01/07:30am 22.7 23.6 21.5 93 0.8 ENE 19 28 10 15 1012.4 - 9.0
01/07:00am 22.2 22.8 21.0 93 0.8 ENE 19 26 10 14 1012.1 - 9.0
01/06:44am 22.2 23.6 21.0 93 0.8 ENE 15 24 8 13 1012.0 - 9.0
01/06:30am 22.0 22.9 20.9 93 0.7 ENE 17 24 9 13 1012.1 - 9.0
01/06:00am 22.0 22.2 20.6 92 0.9 NE 20 28 11 15 1011.7 - 9.0
01/05:59am 22.0 22.2 20.6 92 0.9 NE 20 28 11 15 1011.7 - 9.0
01/05:33am 22.0 22.0 20.9 93 0.7 ENE 22 30 12 16 1011.3 - 9.0
01/05:30am 22.0 22.0 20.9 93 0.7 ENE 22 30 12 16 1011.3 1010.9 9.0
01/05:20am 22.0 22.0 20.9 93 0.7 ENE 22 32 12 17 1011.3 - 9.0
01/05:00am 22.1 21.6 20.7 92 0.9 NE 24 35 13 19 1011.2 - 9.0
01/04:30am 22.1 23.1 21.0 93 0.7 NE 17 24 9 13 1011.3 - 9.0
01/04:00am 22.1 23.4 20.9 93 0.8 ENE 15 22 8 12 1011.3 - 9.0
01/03:54am 22.0 23.3 20.9 93 0.7 ENE 15 22 8 12 1011.3 - 9.0
01/03:37am 22.0 22.3 20.8 93 0.8 ENE 20 28 11 15 1011.1 - 9.0
01/03:30am 22.0 22.3 20.8 93 0.8 ENE 20 30 11 16 1011.1 - 9.0
01/03:00am 22.1 22.9 21.3 95 0.5 ENE 19 26 10 14 1011.1 - 9.0
01/02:30am 22.3 22.9 21.4 95 0.6 ENE 20 30 11 16 1011.3 1010.9 9.0
01/02:00am 22.3 22.6 21.5 95 0.5 ENE 22 33 12 18 1011.2 - 9.0
01/01:30am 22.0 22.2 21.4 96 0.4 ENE 22 30 12 16 1011.3 - 9.0
01/01:18am 21.8 22.2 21.0 95 0.5 ENE 20 33 11 18 1011.7 - 9.0
01/01:00am 21.8 21.6 21.2 96 0.4 ENE 24 33 13 18 1012.0 - 9.0
01/12:30am 22.1 20.4 21.3 95 0.5 ENE 32 44 17 24 1012.2 - 9.0
01/12:00am 22.2 21.4 21.6 96 0.4 E 28 37 15 20 1012.4 - 8.2
 
Date/Time
EDT
Temp
°C
App
Temp
°C
Dew
Point
Rel
Hum
%
Delta-T
°C
Wind Press
QNH
hPa
Press
MSL
hPa
Rain
since 9 am
mm
Dir
 
Spd
km/h
Gust
km/h
Spd
kts
Gust
kts
28/11:34pm 22.2 21.7 21.4 95 0.5 E 26 35 14 19 1012.7 - 8.0
28/11:30pm 22.2 21.3 21.4 95 0.5 E 28 35 15 19 1012.6 1012.2 8.0
28/11:05pm 22.0 21.1 21.4 96 0.4 E 28 41 15 22 1012.6 - 7.8

Other Formats:

Comma delimited format used in spreadsheet applications
http://www.bom.gov.au/fwo/IDN60801/IDN60801.94996.axf

JavaScript Object Notation format (JSON) in row-major order
http://www.bom.gov.au/fwo/IDN60801/IDN60801.94996.json